createdAt,value
2022-09-12T00:02:04.438Z,98.39
2022-09-12T00:04:31.833Z,98.52
2022-09-12T00:06:59.083Z,98.56
2022-09-12T00:09:26.333Z,98.35
2022-09-12T00:11:53.492Z,98.32
2022-09-12T00:14:20.938Z,98.22
2022-09-12T00:16:48.325Z,98.18
2022-09-12T00:19:15.752Z,98.12
2022-09-12T00:21:43.196Z,98.05
2022-09-12T00:24:11.776Z,98.00
2022-09-12T00:26:39.453Z,97.91
2022-09-12T00:29:06.913Z,97.91
2022-09-12T00:31:34.178Z,97.98
2022-09-12T00:34:02.013Z,97.88
2022-09-12T00:36:30.782Z,97.99
2022-09-12T00:38:59.399Z,98.15
2022-09-12T00:41:28.591Z,98.09
2022-09-12T00:43:58.784Z,98.19
2022-09-12T00:46:53.091Z,98.07
2022-09-12T00:49:26.193Z,97.97
2022-09-12T00:51:57.992Z,97.89
2022-09-12T00:54:30.100Z,98.02
2022-09-12T00:57:02.246Z,97.95
2022-09-12T00:59:42.552Z,97.79
2022-09-12T01:02:11.292Z,97.70
2022-09-12T01:04:39.393Z,97.46
2022-09-12T01:07:07.157Z,97.38
2022-09-12T01:09:35.101Z,97.24
2022-09-12T01:12:02.794Z,97.33
2022-09-12T01:14:30.446Z,97.36
2022-09-12T01:16:57.605Z,97.57
2022-09-12T01:19:33.493Z,97.31
2022-09-12T01:22:08.481Z,97.35
2022-09-12T01:24:51.925Z,97.15
2022-09-12T01:27:37.714Z,97.11
2022-09-12T01:30:39.892Z,97.00
2022-09-12T01:33:19.715Z,96.85
2022-09-12T01:36:11.136Z,96.88
2022-09-12T01:39:07.991Z,96.83
2022-09-12T01:41:43.948Z,96.82
2022-09-12T01:44:24.711Z,96.53
2022-09-12T01:47:08.972Z,96.65
2022-09-12T01:49:41.252Z,96.58
2022-09-12T01:52:16.393Z,96.48
2022-09-12T01:55:09.823Z,96.41
2022-09-12T01:57:53.492Z,96.50
2022-09-12T02:00:20.953Z,96.48
2022-09-12T02:02:53.422Z,96.46
2022-09-12T02:05:26.713Z,96.47
2022-09-12T02:08:06.652Z,96.46
2022-09-12T02:10:41.593Z,96.62
2022-09-12T02:13:20.501Z,96.50
2022-09-12T02:15:54.196Z,96.58
2022-09-12T02:18:21.872Z,96.41
2022-09-12T02:20:49.759Z,96.44
2022-09-12T02:23:27.087Z,96.45
2022-09-12T02:25:58.264Z,96.26
2022-09-12T02:28:31.436Z,96.36
2022-09-12T02:31:33.532Z,96.40
2022-09-12T02:34:13.584Z,96.42
2022-09-12T02:36:43.913Z,96.29
2022-09-12T02:39:11.156Z,96.44
2022-09-12T02:41:38.403Z,96.37
2022-09-12T02:44:05.972Z,96.55
2022-09-12T02:46:43.317Z,96.55
2022-09-12T02:49:10.632Z,96.67
2022-09-12T02:51:38.269Z,96.65
2022-09-12T02:54:08.113Z,96.77
2022-09-12T02:56:35.663Z,96.82
2022-09-12T02:59:06.113Z,96.88
2022-09-12T03:01:33.448Z,96.86
2022-09-12T03:04:27.611Z,97.04
2022-09-12T03:07:04.692Z,97.22
2022-09-12T03:10:10.452Z,97.14
2022-09-12T03:12:56.553Z,97.21
2022-09-12T03:15:37.836Z,97.32
2022-09-12T03:18:32.731Z,97.33
2022-09-12T03:21:07.753Z,97.58
2022-09-12T03:23:46.680Z,97.49
2022-09-12T03:26:42.613Z,97.38
2022-09-12T03:29:11.901Z,97.44
2022-09-12T03:31:51.746Z,97.48
2022-09-12T03:34:19.833Z,97.10
2022-09-12T03:36:46.972Z,97.22
2022-09-12T03:39:14.093Z,97.30
2022-09-12T03:41:41.267Z,97.32
2022-09-12T03:44:08.624Z,97.27
2022-09-12T03:46:36.092Z,97.25
2022-09-12T03:49:03.530Z,97.17
2022-09-12T03:51:31.401Z,97.25
2022-09-12T03:53:58.446Z,97.33
2022-09-12T03:56:25.913Z,97.23
2022-09-12T03:58:53.056Z,97.33
2022-09-12T04:01:20.787Z,97.28
2022-09-12T04:03:50.525Z,97.35
2022-09-12T04:06:20.061Z,97.20
2022-09-12T04:08:55.072Z,97.16
2022-09-12T04:11:22.856Z,97.22
2022-09-12T04:13:50.300Z,97.27
2022-09-12T04:16:18.416Z,97.25
2022-09-12T04:18:46.829Z,97.28
2022-09-12T04:21:16.987Z,97.24
2022-09-12T04:23:44.415Z,97.32
2022-09-12T04:26:14.037Z,97.32
2022-09-12T04:28:41.963Z,97.32
2022-09-12T04:31:13.664Z,97.40
2022-09-12T04:33:40.913Z,97.33
2022-09-12T04:36:10.921Z,97.40
2022-09-12T04:38:39.038Z,97.34
2022-09-12T04:41:27.260Z,97.35
2022-09-12T04:44:02.580Z,97.38
2022-09-12T04:46:31.407Z,97.32
2022-09-12T04:48:58.932Z,97.12
2022-09-12T04:51:32.481Z,97.21
2022-09-12T04:54:20.372Z,97.14
2022-09-12T04:56:49.326Z,97.15
2022-09-12T04:59:18.245Z,97.17
2022-09-12T05:01:45.287Z,97.11
2022-09-12T05:04:16.233Z,97.18
2022-09-12T05:06:43.373Z,96.98
2022-09-12T05:09:14.391Z,96.99
2022-09-12T05:12:03.843Z,96.88
2022-09-12T05:14:33.302Z,96.75
2022-09-12T05:17:02.069Z,96.73
2022-09-12T05:19:30.874Z,96.77
2022-09-12T05:21:58.655Z,96.75
2022-09-12T05:24:26.206Z,96.71
2022-09-12T05:26:53.529Z,96.68
2022-09-12T05:29:20.813Z,96.86
2022-09-12T05:31:50.621Z,96.84
2022-09-12T05:34:18.408Z,96.92
2022-09-12T05:36:45.526Z,96.75
2022-09-12T05:39:12.787Z,96.67
2022-09-12T05:41:39.921Z,96.66
2022-09-12T05:44:08.208Z,96.58
2022-09-12T05:46:40.384Z,96.29
2022-09-12T05:49:10.311Z,96.13
2022-09-12T05:51:40.011Z,96.23
2022-09-12T05:54:09.111Z,95.88
2022-09-12T05:56:44.329Z,95.84
2022-09-12T05:59:19.540Z,95.80
2022-09-12T06:01:47.725Z,95.81
2022-09-12T06:04:15.532Z,95.79
2022-09-12T06:06:47.176Z,95.74
2022-09-12T06:09:16.467Z,95.36
2022-09-12T06:11:44.826Z,94.95
2022-09-12T06:14:14.641Z,94.76
2022-09-12T06:16:42.483Z,94.63
2022-09-12T06:19:17.959Z,94.13
2022-09-12T06:21:45.997Z,93.31
2022-09-12T06:24:13.294Z,93.06
2022-09-12T06:26:40.737Z,92.50
2022-09-12T06:29:08.810Z,92.13
2022-09-12T06:31:37.724Z,92.14
2022-09-12T06:34:09.553Z,91.47
2022-09-12T06:36:44.834Z,91.07
2022-09-12T06:39:15.061Z,91.27
2022-09-12T06:41:44.218Z,91.02
2022-09-12T06:44:17.134Z,90.42
2022-09-12T06:46:44.992Z,89.57
2022-09-12T06:49:12.702Z,86.32
2022-09-12T06:51:42.352Z,84.97
2022-09-12T06:54:11.064Z,85.07
2022-09-12T06:56:38.712Z,85.52
2022-09-12T06:59:05.942Z,86.08
2022-09-12T07:01:33.768Z,84.50
2022-09-12T07:04:03.421Z,84.52
2022-09-12T07:06:36.311Z,83.43
2022-09-12T07:09:06.089Z,82.86
2022-09-12T07:11:35.406Z,82.73
2022-09-12T07:14:04.359Z,81.67
2022-09-12T07:16:31.870Z,81.89
2022-09-12T07:19:01.299Z,79.61
2022-09-12T07:21:29.431Z,79.04
2022-09-12T07:23:58.359Z,78.85
2022-09-12T07:26:29.469Z,78.71
2022-09-12T07:29:18.765Z,77.36
2022-09-12T07:31:46.112Z,78.66
2022-09-12T07:34:14.362Z,76.88
2022-09-12T07:36:41.513Z,77.43
2022-09-12T07:39:08.992Z,76.87
2022-09-12T07:41:36.540Z,78.52
2022-09-12T07:44:05.032Z,77.71
2022-09-12T07:46:32.472Z,78.72
2022-09-12T07:49:01.048Z,78.47
2022-09-12T07:51:30.193Z,78.26
2022-09-12T07:53:57.922Z,76.75
2022-09-12T07:56:30.201Z,76.83
2022-09-12T07:58:59.294Z,77.28
2022-09-12T08:01:27.340Z,76.20
2022-09-12T08:03:57.347Z,75.49
2022-09-12T08:06:26.072Z,74.39
2022-09-12T08:08:55.160Z,74.77
2022-09-12T08:11:23.624Z,73.81
2022-09-12T08:13:55.459Z,74.36
2022-09-12T08:16:25.107Z,74.44
2022-09-12T08:18:52.448Z,74.65
2022-09-12T08:21:22.151Z,74.72
2022-09-12T08:23:56.594Z,74.44
2022-09-12T08:26:23.931Z,73.05
2022-09-12T08:28:51.490Z,71.76
2022-09-12T08:31:20.452Z,70.47
2022-09-12T08:33:48.155Z,72.27
2022-09-12T08:36:21.553Z,72.91
2022-09-12T08:38:50.998Z,73.69
2022-09-12T08:41:35.224Z,73.46
2022-09-12T08:44:27.331Z,73.25
2022-09-12T08:47:06.871Z,73.03
2022-09-12T08:49:34.232Z,72.40
2022-09-12T08:52:25.430Z,70.71
2022-09-12T08:54:52.686Z,71.00
2022-09-12T08:57:21.066Z,71.14
2022-09-12T08:59:48.817Z,70.95
2022-09-12T09:02:25.143Z,71.10
2022-09-12T09:04:58.898Z,71.57
2022-09-12T09:07:31.986Z,71.15
2022-09-12T09:10:09.581Z,71.69
2022-09-12T09:12:44.038Z,70.56
2022-09-12T09:15:22.331Z,69.26
2022-09-12T09:18:02.463Z,69.36
2022-09-12T09:20:44.465Z,67.91
2022-09-12T09:23:33.086Z,66.82
2022-09-12T09:26:08.356Z,67.24
2022-09-12T09:28:42.776Z,67.91
2022-09-12T09:31:19.184Z,68.06
2022-09-12T09:33:57.052Z,66.73
2022-09-12T09:36:37.297Z,67.68
2022-09-12T09:39:18.292Z,66.99
2022-09-12T09:44:49.557Z,66.89
2022-09-12T09:47:18.448Z,67.05
2022-09-12T09:49:47.866Z,67.09
2022-09-12T09:52:18.079Z,67.70
2022-09-12T09:54:50.494Z,68.15
2022-09-12T09:57:42.524Z,68.60
2022-09-12T10:00:32.159Z,68.90
2022-09-12T10:03:05.241Z,68.88
2022-09-12T10:05:36.361Z,68.25
2022-09-12T10:08:05.081Z,67.40
2022-09-12T10:10:32.246Z,67.50
2022-09-12T10:13:11.270Z,65.27
2022-09-12T10:15:39.690Z,66.16
2022-09-12T10:18:07.606Z,66.60
2022-09-12T10:20:41.520Z,64.79
2022-09-12T10:23:33.772Z,64.42
2022-09-12T10:26:02.748Z,66.55
2022-09-12T10:28:57.420Z,66.62
2022-09-12T10:31:30.728Z,66.60
2022-09-12T10:34:00.029Z,67.17
2022-09-12T10:36:37.789Z,67.58
2022-09-12T10:39:06.372Z,67.20
2022-09-12T10:41:40.585Z,67.28
2022-09-12T10:44:20.006Z,66.48
2022-09-12T10:46:47.619Z,66.11
2022-09-12T10:49:22.944Z,65.97
2022-09-12T10:51:51.446Z,66.12
2022-09-12T10:54:20.742Z,66.52
2022-09-12T10:57:09.703Z,66.58
2022-09-12T10:59:45.767Z,65.65
2022-09-12T11:02:29.770Z,65.36
2022-09-12T11:05:22.590Z,65.58
2022-09-12T11:07:59.845Z,65.28
2022-09-12T11:10:49.726Z,65.40
2022-09-12T11:13:28.249Z,65.68
2022-09-12T11:16:33.181Z,65.01
2022-09-12T11:19:11.515Z,64.54
2022-09-12T11:21:47.810Z,64.91
2022-09-12T11:24:30.557Z,64.06
2022-09-12T11:27:26.084Z,63.24
2022-09-12T11:30:03.368Z,63.17
2022-09-12T11:32:52.737Z,62.83
2022-09-12T11:35:28.290Z,62.58
2022-09-12T11:38:08.767Z,62.51
2022-09-12T11:40:56.260Z,61.70
2022-09-12T11:43:57.427Z,61.62
2022-09-12T11:46:33.067Z,61.15
2022-09-12T11:49:06.979Z,61.28
2022-09-12T11:51:54.291Z,58.85
2022-09-12T11:54:40.824Z,58.76
2022-09-12T11:57:28.633Z,58.60
2022-09-12T12:00:05.006Z,59.45
2022-09-12T12:02:40.318Z,59.88
2022-09-12T12:05:16.921Z,60.04
2022-09-12T12:07:53.630Z,60.01
2022-09-12T12:10:46.546Z,60.35
2022-09-12T12:13:22.207Z,60.97
2022-09-12T12:15:52.974Z,61.35
2022-09-12T12:18:26.632Z,61.57
2022-09-12T12:20:56.046Z,60.87
2022-09-12T12:23:29.115Z,61.27
2022-09-12T12:25:59.353Z,61.69
2022-09-12T12:28:57.761Z,61.95
2022-09-12T12:31:25.031Z,61.84
2022-09-12T12:33:53.732Z,61.07
2022-09-12T12:36:34.985Z,60.98
2022-09-12T12:39:34.761Z,60.93
2022-09-12T12:42:03.977Z,61.23
2022-09-12T12:44:50.570Z,61.77
2022-09-12T12:47:26.113Z,61.92
2022-09-12T12:49:54.178Z,61.92
2022-09-12T12:52:21.910Z,61.15
2022-09-12T12:54:52.466Z,60.34
2022-09-12T12:57:57.201Z,60.31
2022-09-12T13:00:30.196Z,60.50
2022-09-12T13:03:25.308Z,61.01
2022-09-12T13:06:02.286Z,61.12
2022-09-12T13:08:35.951Z,60.35
2022-09-12T13:11:15.346Z,59.99
2022-09-12T13:13:52.532Z,60.09
2022-09-12T13:16:38.328Z,60.41
2022-09-12T13:19:18.517Z,60.48
2022-09-12T13:22:03.746Z,59.59
2022-09-12T13:24:31.613Z,58.97
2022-09-12T13:26:59.861Z,59.87
2022-09-12T13:29:29.069Z,59.77
2022-09-12T13:31:58.901Z,59.20
2022-09-12T13:34:27.460Z,60.10
2022-09-12T13:37:07.108Z,60.68
2022-09-12T13:39:50.663Z,61.32
2022-09-12T13:42:41.644Z,61.04
2022-09-12T13:45:24.869Z,62.01
2022-09-12T13:48:02.777Z,62.24
2022-09-12T13:50:39.033Z,62.70
2022-09-12T13:53:10.270Z,62.77
2022-09-12T13:55:42.352Z,63.17
2022-09-12T13:58:30.481Z,63.88
2022-09-12T14:01:15.385Z,64.65
2022-09-12T14:04:02.787Z,65.24
2022-09-12T14:06:57.395Z,64.89
2022-09-12T14:09:34.281Z,64.34
2022-09-12T14:12:02.429Z,64.32
2022-09-12T14:14:37.856Z,64.56
2022-09-12T14:17:52.426Z,63.95
2022-09-12T14:20:21.329Z,62.00
2022-09-12T14:22:51.137Z,62.47
2022-09-12T14:25:25.537Z,62.35
2022-09-12T14:27:54.863Z,62.27
2022-09-12T14:30:30.830Z,62.29
2022-09-12T14:33:13.126Z,62.55
2022-09-12T14:35:53.268Z,62.78
2022-09-12T14:38:25.555Z,63.13
2022-09-12T14:41:10.736Z,62.22
2022-09-12T14:43:44.205Z,61.46
2022-09-12T14:46:25.155Z,61.53
2022-09-12T14:48:59.492Z,61.82
2022-09-12T14:51:35.068Z,62.49
2022-09-12T14:54:03.119Z,62.33
2022-09-12T14:56:44.988Z,62.67
2022-09-12T14:59:35.007Z,63.23
2022-09-12T15:02:14.849Z,62.63
2022-09-12T15:04:47.844Z,62.79
2022-09-12T15:07:25.821Z,62.88
2022-09-12T15:09:53.706Z,61.84
2022-09-12T15:12:21.162Z,61.79
2022-09-12T15:14:48.510Z,61.35
2022-09-12T15:17:17.202Z,62.28
2022-09-12T15:19:45.044Z,62.36
2022-09-12T15:22:13.959Z,62.49
2022-09-12T15:24:41.227Z,63.26
2022-09-12T15:27:12.568Z,63.31
2022-09-12T15:29:40.920Z,62.86
2022-09-12T15:32:15.358Z,63.15
2022-09-12T15:34:42.908Z,63.19
2022-09-12T15:37:13.447Z,63.53
2022-09-12T15:39:41.554Z,63.59
2022-09-12T15:42:10.289Z,64.33
2022-09-12T15:44:37.441Z,64.31
2022-09-12T15:47:06.426Z,63.61
2022-09-12T15:49:35.947Z,63.58
2022-09-12T15:52:03.527Z,63.69
2022-09-12T15:54:31.099Z,63.71
2022-09-12T15:56:58.527Z,63.81
2022-09-12T15:59:27.508Z,63.17
2022-09-12T16:01:55.319Z,63.47
2022-09-12T16:04:25.130Z,63.78
2022-09-12T16:06:53.458Z,64.27
2022-09-12T16:09:21.447Z,64.51
2022-09-12T16:11:49.085Z,64.94
2022-09-12T16:14:20.146Z,65.37
2022-09-12T16:16:54.200Z,65.96
2022-09-12T16:19:22.239Z,65.92
2022-09-12T16:21:49.441Z,66.15
2022-09-12T16:24:16.604Z,66.35
2022-09-12T16:26:44.087Z,66.65
2022-09-12T16:29:14.506Z,66.99
2022-09-12T16:31:42.611Z,66.97
2022-09-12T16:34:11.578Z,67.42
2022-09-12T16:36:39.526Z,67.60
2022-09-12T16:39:07.816Z,68.04
2022-09-12T16:41:34.968Z,68.37
2022-09-12T16:44:02.711Z,68.64
2022-09-12T16:46:30.774Z,68.84
2022-09-12T16:48:59.288Z,69.08
2022-09-12T16:51:32.374Z,69.40
2022-09-12T16:53:59.945Z,69.67
2022-09-12T16:56:27.378Z,70.32
2022-09-12T16:58:55.559Z,70.32
2022-09-12T17:01:24.618Z,70.86
2022-09-12T17:03:57.533Z,71.17
2022-09-12T17:06:26.141Z,71.05
2022-09-12T17:08:54.950Z,71.11
2022-09-12T17:11:27.896Z,71.17
2022-09-12T17:14:05.510Z,71.66
2022-09-12T17:16:39.515Z,72.60
2022-09-12T17:19:08.380Z,72.79
2022-09-12T17:21:36.370Z,73.23
2022-09-12T17:24:04.686Z,73.38
2022-09-12T17:26:32.213Z,73.44
2022-09-12T17:28:59.761Z,73.87
2022-09-12T17:31:28.342Z,74.31
2022-09-12T17:34:00.126Z,74.25
2022-09-12T17:36:28.890Z,74.46
2022-09-12T17:38:57.099Z,74.44
2022-09-12T17:41:26.710Z,74.50
2022-09-12T17:43:58.198Z,74.76
2022-09-12T17:46:31.998Z,75.00
2022-09-12T17:49:01.550Z,75.04
2022-09-12T17:51:31.583Z,75.37
2022-09-12T17:54:11.385Z,75.40
2022-09-12T17:56:40.275Z,75.35
2022-09-12T17:59:10.671Z,75.53
2022-09-12T18:01:57.448Z,75.95
2022-09-12T18:04:27.183Z,76.29
2022-09-12T18:06:55.827Z,76.60
2022-09-12T18:09:25.773Z,76.91
2022-09-12T18:11:54.567Z,77.44
2022-09-12T18:14:23.096Z,77.89
2022-09-12T18:16:52.333Z,78.44
2022-09-12T18:19:20.473Z,78.74
2022-09-12T18:21:49.443Z,78.84
2022-09-12T18:24:17.516Z,79.17
2022-09-12T18:26:46.129Z,79.37
2022-09-12T18:29:17.610Z,79.27
2022-09-12T18:31:46.768Z,79.20
2022-09-12T18:34:15.550Z,79.09
2022-09-12T18:36:45.358Z,79.25
2022-09-12T18:39:13.830Z,79.30
2022-09-12T18:41:42.041Z,79.45
2022-09-12T18:44:12.403Z,79.83
2022-09-12T18:46:40.544Z,79.79
2022-09-12T18:49:10.528Z,79.83
2022-09-12T18:51:41.367Z,80.14
2022-09-12T18:54:14.043Z,79.93
2022-09-12T18:56:44.776Z,79.79
2022-09-12T18:59:16.637Z,79.65
2022-09-12T19:01:44.689Z,79.85
2022-09-12T19:04:14.472Z,80.10
2022-09-12T19:06:45.093Z,80.39
2022-09-12T19:09:15.156Z,80.54
2022-09-12T19:11:51.420Z,80.59
2022-09-12T19:14:24.715Z,80.81
2022-09-12T19:16:53.221Z,81.27
2022-09-12T19:19:21.679Z,81.33
2022-09-12T19:21:50.498Z,81.64
2022-09-12T19:24:18.754Z,82.53
2022-09-12T19:26:47.547Z,82.43
2022-09-12T19:29:17.339Z,82.61
2022-09-12T19:31:45.623Z,82.66
2022-09-12T19:34:14.604Z,82.38
2022-09-12T19:36:45.484Z,82.66
2022-09-12T19:39:14.708Z,83.28
2022-09-12T19:41:42.107Z,83.48
2022-09-12T19:44:10.287Z,83.62
2022-09-12T19:46:37.882Z,83.84
2022-09-12T19:49:05.491Z,83.61
2022-09-12T19:51:33.169Z,83.54
2022-09-12T19:54:01.067Z,83.80
2022-09-12T19:56:29.775Z,84.58
2022-09-12T19:58:57.621Z,85.18
2022-09-12T20:01:28.904Z,85.59
2022-09-12T20:03:58.734Z,85.57
2022-09-12T20:06:27.051Z,85.79
2022-09-12T20:08:55.516Z,85.62
2022-09-12T20:11:24.045Z,85.70
2022-09-12T20:13:51.747Z,85.39
2022-09-12T20:16:25.957Z,85.34
2022-09-12T20:18:55.439Z,85.90
2022-09-12T20:21:25.826Z,86.25
2022-09-12T20:23:53.460Z,86.46
2022-09-12T20:26:20.875Z,86.84
2022-09-12T20:28:48.871Z,86.80
2022-09-12T20:31:17.090Z,86.48
2022-09-12T20:33:47.578Z,86.41
2022-09-12T20:36:19.859Z,86.62
2022-09-12T20:38:49.372Z,86.69
2022-09-12T20:41:17.479Z,86.61
2022-09-12T20:43:44.669Z,87.20
2022-09-12T20:46:12.983Z,87.45
2022-09-12T20:48:40.500Z,87.32
2022-09-12T20:51:08.360Z,87.30
2022-09-12T20:53:35.929Z,87.12
2022-09-12T20:56:04.300Z,87.74
2022-09-12T20:58:31.868Z,88.07
2022-09-12T21:01:03.743Z,88.16
2022-09-12T21:03:31.287Z,88.44
2022-09-12T21:05:59.069Z,88.56
2022-09-12T21:08:26.408Z,88.86
2022-09-12T21:10:53.866Z,89.09
2022-09-12T21:13:21.329Z,89.18
2022-09-12T21:15:48.723Z,89.62
2022-09-12T21:18:16.027Z,88.88
2022-09-12T21:20:43.388Z,88.43
2022-09-12T21:23:10.647Z,87.96
2022-09-12T21:25:37.981Z,88.55
2022-09-12T21:28:05.141Z,89.20
2022-09-12T21:30:32.507Z,89.64
2022-09-12T21:33:00.062Z,89.95
2022-09-12T21:35:29.463Z,90.37
2022-09-12T21:37:56.906Z,90.68
2022-09-12T21:40:24.312Z,91.03
2022-09-12T21:42:51.815Z,91.20
2022-09-12T21:45:19.807Z,91.39
2022-09-12T21:47:47.567Z,91.22
2022-09-12T21:50:15.226Z,91.03
2022-09-12T21:52:42.367Z,90.78
2022-09-12T21:55:10.346Z,90.80
2022-09-12T21:57:37.906Z,91.31
2022-09-12T22:00:08.387Z,91.13
2022-09-12T22:02:35.572Z,91.37
2022-09-12T22:05:04.423Z,91.66
2022-09-12T22:07:31.827Z,92.09
2022-09-12T22:09:59.287Z,91.91
2022-09-12T22:12:30.005Z,91.63
2022-09-12T22:14:57.497Z,91.75
2022-09-12T22:17:24.835Z,92.01
2022-09-12T22:19:52.168Z,91.95
2022-09-12T22:22:38.067Z,91.70
2022-09-12T22:25:06.149Z,91.62
2022-09-12T22:27:33.171Z,91.39
2022-09-12T22:30:00.748Z,91.38
2022-09-12T22:32:28.002Z,91.32
2022-09-12T22:34:55.368Z,91.20
2022-09-12T22:37:22.807Z,91.17
2022-09-12T22:39:50.197Z,91.20
2022-09-12T22:42:17.426Z,91.02
2022-09-12T22:44:44.549Z,90.97
2022-09-12T22:47:11.921Z,91.08
2022-09-12T22:49:39.181Z,91.57
2022-09-12T22:52:06.322Z,91.78
2022-09-12T22:54:33.562Z,91.80
2022-09-12T22:57:00.640Z,92.00
2022-09-12T22:59:27.860Z,92.10
2022-09-12T23:01:55.120Z,92.24
2022-09-12T23:04:22.282Z,92.07
2022-09-12T23:06:50.041Z,91.91
2022-09-12T23:09:17.501Z,91.97
2022-09-12T23:11:44.641Z,91.98
2022-09-12T23:14:11.901Z,91.83
2022-09-12T23:16:39.513Z,92.04
2022-09-12T23:19:06.802Z,92.16
2022-09-12T23:21:34.062Z,92.01
2022-09-12T23:24:01.204Z,91.61
2022-09-12T23:26:29.883Z,91.73
2022-09-12T23:29:02.482Z,91.93
2022-09-12T23:31:31.781Z,91.48
2022-09-12T23:34:02.319Z,91.36
2022-09-12T23:36:30.580Z,90.99
2022-09-12T23:38:58.534Z,91.38
2022-09-12T23:41:25.801Z,91.66
2022-09-12T23:43:53.168Z,91.60
2022-09-12T23:46:21.219Z,91.31
2022-09-12T23:48:49.183Z,91.73
2022-09-12T23:51:16.570Z,91.87
2022-09-12T23:53:43.894Z,91.95
2022-09-12T23:56:11.330Z,92.79
2022-09-12T23:58:38.621Z,93.22
